Latest Coastal Weather Observations for Sydney Airport

IDN60701

Issued at 9:31 pm EST Saturday 25 May 2019 (issued every 10 minutes, with the page automatically refreshed every 10 minutes)

About coastal observations | Map of coastal stations | Coastal observations for NSW | Marine services | Other Formats
Station Details ID: 066037 Name: SYDNEY AIRPORT AMO Lat: -33.95 Lon: 151.17 Height: 6.0 m
Data from the previous 72 hours. | See also: Recent months at Sydney Airport
Date/Time
EST
Wind Sea
Height
m
Swell Vis
km
Cloud Weather Temp
°C
Press
hPa
Rain since
9am
mm
Dir  Spd
kts
Gust
kts
Height
m
Period
s
Dir
25/09:00pm N 8 9 - - - - 30 Clear Fine 20.4 1016.0 0.0
25/08:30pm NNW 8 9 - - - - 10 - - 19.7 1016.1 0.0
25/08:00pm N 6 7 - - - - 10 - - 19.8 1016.2 0.0
25/07:30pm N 7 8 - - - - 10 - - 20.9 1016.0 0.0
25/07:00pm NNE 6 7 - - - - 10 - - 20.8 1015.9 0.0
25/06:30pm NNE 8 9 - - - - 10 - - 21.2 1015.9 0.0
25/06:00pm NNE 8 9 - - - - 30 Clear Fine 21.1 1015.7 0.0
25/05:30pm NNE 7 9 - - - - 10 - - 22.1 1015.7 0.0
25/05:00pm NE 8 9 - - - - 10 - - 22.7 1015.6 0.0
25/04:30pm N 7 9 - - - - 10 - - 24.1 1015.3 0.0
25/04:00pm NNW 3 7 - - - - 10 - - 25.4 1015.3 0.0
25/03:30pm W 1 4 - - - - 10 - - 25.9 1015.3 0.0
25/03:00pm NW 5 8 - - - - 30 Mostly clear Fine 26.3 1015.4 0.0
25/02:30pm NW 5 7 - - - - 10 - - 26.9 1015.6 0.0
25/02:00pm NW 5 8 - - - - 10 - - 26.3 1015.7 0.0
25/01:30pm NNW 8 11 - - - - 10 - - 26.4 1016.1 0.0
25/01:00pm NW 7 9 - - - - 10 - - 25.8 1016.7 0.0
25/12:30pm NNW 7 9 - - - - 10 - - 25.3 1017.0 0.0
25/12:00pm NW 6 8 - - - - 30 Mostly clear Fine 23.9 1017.6 0.0
25/11:30am NW 7 9 - - - - 10 - - 23.2 1018.3 0.0
25/11:00am NW 7 10 - - - - 10 - - 22.6 1018.8 0.0
25/10:30am WNW 9 14 - - - - 10 - - 21.3 1019.3 0.0
25/10:00am WNW 9 12 - - - - 10 - - 19.9 1019.7 0.0
25/09:30am NW 9 12 - - - - 10 - - 18.8 1019.9 0.0
25/09:00am NW 9 11 - - - - 30 Mostly clear Fine 17.8 1020.0 0.0
25/08:30am NW 9 12 - - - - 10 - - 16.5 1020.1 0.0
25/08:00am NW 9 11 - - - - 10 - - 15.4 1020.1 0.0
25/07:30am NW 9 13 - - - - 10 - - 14.5 1020.1 0.0
25/07:00am NNW 7 10 - - - - 10 - - 14.3 1020.0 0.0
25/06:30am NNW 9 12 - - - - 10 - - 13.9 1019.9 0.0
25/06:00am NNW 8 10 - - - - 25 Clear Smoke 13.1 1019.8 0.0
25/05:30am NNW 10 11 - - - - 10 - - 13.3 1019.6 0.0
25/05:00am NNW 7 8 - - - - 10 - - 13.2 1019.6 0.0
25/04:30am NW 9 11 - - - - 10 - - 13.2 1019.7 0.0
25/04:00am WNW 9 10 - - - - 10 - - 13.5 1019.8 0.0
25/03:30am WNW 7 8 - - - - 10 - - 14.3 1019.7 0.0
25/03:00am NW 8 11 - - - - 15 Clear Smoke 14.3 1019.7 0.0
25/02:30am WNW 6 8 - - - - 10 - - 14.6 1020.0 0.0
25/02:00am W 9 11 - - - - 10 - - 14.5 1020.1 0.0
25/01:30am WNW 8 11 - - - - 10 - - 14.8 1020.2 0.0
25/01:00am WNW 9 10 - - - - 10 - - 15.8 1020.2 0.0
25/12:30am NW 5 7 - - - - 10 - - 16.1 1020.3 0.0
25/12:00am NNW 8 9 - - - - 20 Mostly clear Haze 16.6 1020.5 0.0
 
Date/Time
EST
Wind Sea
Height
m
Swell Vis
km
Cloud Weather Temp
°C
Press
hPa
Rain since
9am
mm
Dir  Spd
kts
Gust
kts
Height
m
Period
s
Dir
24/11:30pm NNW 6 7 - - - - 10 - - 17.5 1020.6 0.0
24/11:00pm NNW 7 8 - - - - 10 - - 17.4 1020.8 0.0
24/10:30pm NNW 7 8 - - - - 10 - - 17.9 1020.9 0.0
24/10:00pm N 6 6 - - - - 10 - - 19.1 1020.9 0.0
24/09:30pm N 4 6 - - - - 10 - - 18.9 1021.1 0.0
24/09:00pm N 4 5 - - - - 20 Mostly cloudy Haze 19.4 1021.3 0.0
24/08:30pm N 5 6 - - - - 10 - - 19.7 1021.3 0.0
24/08:00pm WNW 4 5 - - - - 10 - - 19.1 1021.2 0.0
24/07:30pm NW 5 6 - - - - 10 - - 20.1 1021.3 0.0
24/07:00pm NNW 5 5 - - - - 10 - - 20.3 1021.1 0.0
24/06:30pm NNW 6 8 - - - - 10 - - 21.3 1020.9 0.0
24/06:00pm NNW 7 8 - - - - 25 Mostly cloudy Fine 21.8 1020.6 0.0
24/05:30pm NNE 5 6 - - - - 10 - - 22.7 1020.4 0.0
24/05:00pm N 7 8 - - - - 10 - - 23.3 1020.3 0.0
24/04:30pm N 6 8 - - - - 10 - - 23.7 1020.1 0.0
24/04:00pm N 6 7 - - - - 10 - - 24.2 1020.1 0.0
24/03:30pm NNW 6 9 - - - - 10 - - 24.6 1019.9 0.0
24/03:00pm NNW 5 7 - - - - 25 Mostly cloudy Haze 25.1 1019.9 0.0
24/02:30pm NW 7 8 - - - - 10 - - 25.0 1020.0 0.0
24/02:00pm NNW 6 9 - - - - 10 - - 24.5 1020.0 0.0
24/01:30pm NW 7 10 - - - - 10 - - 24.8 1020.2 0.0
24/01:00pm NW 7 11 - - - - 10 - - 25.1 1020.6 0.0
24/12:30pm NW 7 11 - - - - 10 - - 24.2 1020.9 0.0
24/12:00pm NW 7 9 - - - - 18 Partly cloudy Haze 23.3 1021.5 0.0
24/11:30am NW 7 9 - - - - 9 - - 22.1 1022.3 0.0
24/11:00am NNW 7 10 - - - - 9 - - 21.3 1022.8 0.0
24/10:30am WNW 8 10 - - - - 10 - - 19.9 1023.5 0.0
24/10:00am NW 9 11 - - - - 10 - - 19.3 1023.8 0.0
24/09:30am NW 9 11 - - - - 10 - - 18.5 1023.9 0.0
24/09:00am WNW 8 11 - - - - 15 Mostly clear Haze 17.3 1024.0 0.0
24/08:30am NW 9 11 - - - - 10 - - 16.6 1024.1 0.0
24/08:00am NW 8 11 - - - - 10 - - 15.8 1023.9 0.0
24/07:30am NW 9 12 - - - - 10 - - 14.8 1023.8 0.0
24/07:00am NW 9 11 - - - - 10 - - 14.8 1023.6 0.0
24/06:30am NW 7 9 - - - - 9 - - 15.0 1023.5 0.0
24/06:00am NNW 7 8 - - - - 9 Mostly clear Mist 14.6 1023.2 0.0
24/05:30am NNW 8 9 - - - - 10 - - 14.4 1023.1 0.0
24/05:00am N 8 9 - - - - 10 - - 13.9 1023.0 0.0
24/04:30am NNW 6 7 - - - - 10 - - 14.9 1023.0 0.0
24/04:00am NNW 6 6 - - - - 10 - - 14.5 1022.9 0.0
24/03:30am NW 5 6 - - - - 9 - - 15.2 1023.2 0.0
24/03:00am W 6 7 - - - - 15 Clear Haze 15.0 1023.6 0.0
24/02:30am NW 4 5 - - - - 10 - - 15.3 1023.5 0.0
24/02:00am NNW 3 4 - - - - 10 - - 16.3 1023.6 0.0
24/01:30am N 6 7 - - - - 10 Partly cloudy - 16.5 1023.8 0.0
24/01:00am NNW 6 6 - - - - 10 Partly cloudy - 17.1 1024.1 0.0
24/12:30am N 6 6 - - - - 10 Partly cloudy - 17.3 1024.5 0.0
24/12:00am NNW 4 4 - - - - 20 Partly cloudy Haze 17.2 1024.8 0.0
 
Date/Time
EST
Wind Sea
Height
m
Swell Vis
km
Cloud Weather Temp
°C
Press
hPa
Rain since
9am
mm
Dir  Spd
kts
Gust
kts
Height
m
Period
s
Dir
23/11:30pm NNW 5 6 - - - - 10 Partly cloudy - 17.8 1024.9 0.0
23/11:00pm NW 4 8 - - - - 10 Partly cloudy - 17.6 1025.0 0.0
23/10:30pm WNW 5 7 - - - - 10 Mostly clear - 18.1 1025.1 0.0
23/10:00pm NW 6 9 - - - - 10 Mostly clear - 18.7 1025.2 0.0
23/09:30pm NW 5 6 - - - - 10 Mostly clear - 19.0 1025.4 0.0
23/09:00pm W 5 7 - - - - 30 Mostly clear Fine 18.4 1025.3 0.0
23/08:30pm CALM 0 1 - - - - 10 Mostly clear - 18.9 1025.3 0.0
23/08:00pm N 3 4 - - - - 10 Mostly clear - 19.4 1025.3 0.0
23/07:30pm CALM 0 1 - - - - 10 Mostly clear - 19.8 1025.2 0.0
23/07:00pm ENE 4 5 - - - - 10 Mostly clear - 20.7 1025.0 0.0
23/06:30pm ENE 4 5 - - - - 10 Mostly clear - 19.9 1025.0 0.0
23/06:00pm E 5 7 - - - - 30 Mostly clear Fine 19.7 1024.8 0.0
23/05:30pm ENE 6 7 - - - - 10 Mostly clear - 19.9 1024.7 0.0
23/05:00pm E 6 7 - - - - 10 Mostly clear - 20.6 1024.8 0.0
23/04:30pm E 9 10 - - - - 10 Mostly clear - 20.9 1024.6 0.0
23/04:00pm SE 7 8 - - - - 10 Mostly clear - 22.0 1024.7 0.0
23/03:30pm SE 7 8 - - - - 10 Mostly clear - 21.5 1024.6 0.0
23/03:00pm SE 8 9 - - - - 30 Mostly clear Fine 22.0 1024.6 0.0
23/02:30pm SE 8 9 - - - - 10 Mostly clear - 21.3 1025.0 0.0
23/02:00pm SE 8 9 - - - - 10 Mostly clear - 21.4 1025.2 0.0
23/01:30pm SSE 6 8 - - - - 10 Mostly clear - 21.2 1025.5 0.0
23/01:00pm SSE 6 9 - - - - 10 Mostly clear - 21.5 1025.9 0.0
23/12:30pm SE 5 7 - - - - 10 Mostly clear - 20.5 1026.4 0.0
23/12:00pm S 5 6 - - - - 30 Partly cloudy Distant precip. 20.3 1026.8 0.0
23/11:30am SW 4 10 - - - - 10 Mostly clear - 20.8 1027.2 0.0
23/11:00am WSW 5 11 - - - - 10 Mostly clear - 20.7 1027.8 0.0
23/10:30am W 5 13 - - - - 10 Mostly clear - 21.9 1028.3 0.0
23/10:00am WNW 6 13 - - - - 10 Mostly clear - 20.7 1028.3 0.0
23/09:30am NW 7 7 - - - - 10 Mostly clear - 20.1 1028.4 0.0
23/09:00am NW 7 8 - - - - 22 Partly cloudy Distant precip. 17.8 1028.4 0.0
23/08:30am NW 8 9 - - - - 10 Mostly clear - 16.7 1028.4 0.0
23/08:00am NW 8 9 - - - - 10 Mostly clear - 16.1 1028.3 0.0
23/07:30am NW 6 8 - - - - 10 Mostly clear - 15.8 1028.1 0.0
23/07:00am NW 6 8 - - - - 10 Mostly clear - 15.0 1027.7 0.0
23/06:30am NW 5 7 - - - - 10 Mostly clear - 15.1 1027.7 0.0
23/06:00am NNW 5 6 - - - - 20 Mostly clear Distant precip. 15.3 1027.4 0.0
23/05:30am NNW 6 7 - - - - 10 Mostly clear - 15.5 1027.1 0.0
23/05:00am NNW 6 7 - - - - 10 Mostly clear - 15.8 1027.2 0.0
23/04:30am NNW 6 8 - - - - 10 Mostly clear - 15.7 1027.1 0.0
23/04:00am NW 7 8 - - - - 10 Mostly clear - 15.2 1027.0 0.0
23/03:30am NW 7 9 - - - - 10 Mostly clear - 15.4 1027.1 0.0
23/03:00am N 7 8 - - - - 25 Partly cloudy Distant precip. 16.0 1027.1 0.0
23/02:30am NNW 6 7 - - - - 10 Mostly clear - 16.5 1027.1 0.0
23/02:00am WNW 4 6 - - - - 10 Mostly clear - 17.1 1027.4 0.0
23/01:30am WSW 6 8 - - - - 10 Mostly clear - 17.0 1027.4 0.0
23/01:00am WNW 5 5 - - - - 10 Mostly clear - 16.5 1027.2 0.0
23/12:30am W 6 8 - - - - 10 Mostly clear - 16.9 1027.5 0.0
23/12:00am W 8 9 - - - - 25 Partly cloudy Distant precip. 16.8 1027.7 0.0
 
Date/Time
EST
Wind Sea
Height
m
Swell Vis
km
Cloud Weather Temp
°C
Press
hPa
Rain since
9am
mm
Dir  Spd
kts
Gust
kts
Height
m
Period
s
Dir
22/11:30pm WNW 6 7 - - - - 10 Mostly clear - 17.2 1027.6 0.0
22/11:00pm SSW 7 8 - - - - 10 Mostly clear - 17.6 1027.5 0.0
22/10:30pm WSW 7 9 - - - - 10 Mostly clear - 18.1 1027.8 0.0
22/10:00pm SW 6 8 - - - - 10 Mostly clear - 18.4 1027.8 0.0

Other formats

Comma delimited format used in spreadsheet applications
http://www.bom.gov.au/fwo/IDN60701/IDN60701.94767.axf

JavaScript Object Notation format (JSON) in row-major order
http://www.bom.gov.au/fwo/IDN60701/IDN60701.94767.json

Data quality

Most of these data are generated automatically and are frequently updated. Quality checks on data are not normally performed. It is possible for incorrect values to appear. Refer to information at About Latest Weather Observations and please check the disclaimer before using these data.